Terminal Aerodrome Forecast
Issued by NWS Pocatello, ID

Home | Current Version | Previous Version | Text Only | Print | Product List | Glossary On
Versions: 1 2 3 4 5 6 7 8 9 10 11 12 13 14 15 16
511
FTUS45 KPIH 271120
TAFIDA
TAF
KIDA 271120Z 2712/2812 18008KT P6SM -SHRA SCT040 BKN070
     FM272100 22011KT P6SM -SHRA VCTS BKN030CB
     FM280200 33011KT P6SM VCSH BKN030=

USA.gov is the U.S. government's official web portal to all federal, state and local government web resources and services.